createdAt,value
2023-04-18T00:00:52.889Z,1973.00
2023-04-18T00:01:52.972Z,1969.00
2023-04-18T00:02:53.147Z,1964.00
2023-04-18T00:03:53.268Z,1965.00
2023-04-18T00:04:53.143Z,1964.00
2023-04-18T00:05:52.997Z,1957.00
2023-04-18T00:06:53.024Z,1959.00
2023-04-18T00:07:53.044Z,1956.00
2023-04-18T00:08:53.073Z,1953.00
2023-04-18T00:09:53.066Z,1951.00
2023-04-18T00:10:53.112Z,1952.00
2023-04-18T00:11:53.105Z,1948.00
2023-04-18T00:12:53.105Z,1951.00
2023-04-18T00:13:53.139Z,1953.00
2023-04-18T00:14:53.139Z,1954.00
2023-04-18T00:15:53.155Z,1940.00
2023-04-18T00:16:53.221Z,1937.00
2023-04-18T00:17:53.295Z,1941.00
2023-04-18T00:18:53.211Z,1941.00
2023-04-18T00:19:53.237Z,1938.00
2023-04-18T00:20:53.249Z,1934.00
2023-04-18T00:21:53.329Z,1933.00
2023-04-18T00:22:53.295Z,1924.00
2023-04-18T00:23:53.348Z,1928.00
2023-04-18T00:24:53.365Z,1925.00
2023-04-18T00:25:53.368Z,1927.00
2023-04-18T00:26:53.395Z,1927.00
2023-04-18T00:27:53.446Z,1922.00
2023-04-18T00:28:53.446Z,1916.00
2023-04-18T00:29:53.466Z,1921.00
2023-04-18T00:30:53.516Z,1913.00
2023-04-18T00:31:53.550Z,1914.00
2023-04-18T00:32:53.456Z,1915.00
2023-04-18T00:33:53.407Z,1918.00
2023-04-18T00:34:53.374Z,1921.00
2023-04-18T00:35:53.340Z,1913.00
2023-04-18T00:36:53.316Z,1925.00
2023-04-18T00:37:53.302Z,1917.00
2023-04-18T00:38:53.277Z,1913.00
2023-04-18T00:39:53.258Z,1910.00
2023-04-18T00:40:53.225Z,1908.00
2023-04-18T00:41:53.202Z,1910.00
2023-04-18T00:42:53.184Z,1909.00
2023-04-18T00:43:53.337Z,1906.00
2023-04-18T00:44:53.252Z,1906.00
2023-04-18T00:45:53.145Z,1904.00
2023-04-18T00:46:53.107Z,1899.00
2023-04-18T00:47:53.153Z,1905.00
2023-04-18T00:48:53.133Z,1899.00
2023-04-18T00:49:53.161Z,1899.00
2023-04-18T00:50:53.178Z,1890.00
2023-04-18T00:51:53.220Z,1898.00
2023-04-18T00:52:53.238Z,1890.00
2023-04-18T00:53:53.250Z,1890.00
2023-04-18T00:54:53.283Z,1885.00
2023-04-18T00:55:53.295Z,1882.00
2023-04-18T00:56:53.400Z,1880.00
2023-04-18T00:57:53.348Z,1883.00
2023-04-18T00:58:53.362Z,1883.00
2023-04-18T00:59:53.391Z,1883.00
2023-04-18T01:00:53.360Z,1883.00
2023-04-18T01:01:53.567Z,1884.00
2023-04-18T01:02:53.546Z,1887.00
2023-04-18T01:03:53.423Z,1883.00
2023-04-18T01:04:53.277Z,1879.00
2023-04-18T01:05:53.237Z,1883.00
2023-04-18T01:06:53.241Z,1884.00
2023-04-18T01:07:53.199Z,1877.00
2023-04-18T01:08:53.174Z,1878.00
2023-04-18T01:09:53.173Z,1866.00
2023-04-18T01:10:53.131Z,1871.00
2023-04-18T01:11:53.106Z,1873.00
2023-04-18T01:12:53.072Z,1866.00
2023-04-18T01:13:53.050Z,1868.00
2023-04-18T01:14:53.022Z,1868.00
2023-04-18T01:15:53.086Z,1859.00
2023-04-18T01:16:53.073Z,1860.00
2023-04-18T01:17:53.110Z,1866.00
2023-04-18T01:18:53.114Z,1859.00
2023-04-18T01:19:53.130Z,1859.00
2023-04-18T01:20:53.206Z,1857.00
2023-04-18T01:21:53.162Z,1857.00
2023-04-18T01:22:53.198Z,1851.00
2023-04-18T01:23:53.195Z,1858.00
2023-04-18T01:24:53.225Z,1848.00
2023-04-18T01:25:53.237Z,1851.00
2023-04-18T01:26:53.267Z,1853.00
2023-04-18T01:27:53.293Z,1842.00
2023-04-18T01:28:53.310Z,1846.00
2023-04-18T01:29:53.347Z,1845.00
2023-04-18T01:30:53.403Z,1841.00
2023-04-18T01:31:53.405Z,1838.00
2023-04-18T01:32:53.497Z,1833.00
2023-04-18T01:33:53.448Z,1839.00
2023-04-18T01:34:53.473Z,1837.00
2023-04-18T01:35:53.518Z,1831.00
2023-04-18T01:36:53.532Z,1832.00
2023-04-18T01:37:53.556Z,1832.00
2023-04-18T01:38:53.597Z,1829.00
2023-04-18T01:39:53.603Z,1830.00
2023-04-18T01:40:53.640Z,1826.00
2023-04-18T01:41:53.697Z,1830.00
2023-04-18T01:42:53.675Z,1832.00
2023-04-18T01:43:53.697Z,1819.00
2023-04-18T01:44:53.699Z,1822.00
2023-04-18T01:45:53.716Z,1816.00
2023-04-18T01:46:53.855Z,1820.00
2023-04-18T01:47:53.770Z,1817.00
2023-04-18T01:48:53.778Z,1811.00
2023-04-18T01:49:53.801Z,1822.00
2023-04-18T01:50:53.812Z,1807.00
2023-04-18T01:51:53.826Z,1807.00
2023-04-18T01:52:53.852Z,1810.00
2023-04-18T01:53:53.870Z,1810.00
2023-04-18T01:54:53.893Z,1806.00
2023-04-18T01:55:53.938Z,1808.00
2023-04-18T01:56:53.941Z,1808.00
2023-04-18T01:57:53.965Z,1806.00
2023-04-18T01:58:53.998Z,1794.00
2023-04-18T01:59:53.966Z,1795.00
2023-04-18T02:00:53.976Z,1797.00
2023-04-18T02:01:53.966Z,1797.00
2023-04-18T02:02:53.966Z,1797.00
2023-04-18T02:03:54.212Z,1799.00
2023-04-18T02:04:53.836Z,1797.00
2023-04-18T02:05:53.805Z,1797.00
2023-04-18T02:06:53.766Z,1792.00
2023-04-18T02:07:53.740Z,1788.00
2023-04-18T02:08:53.710Z,1789.00
2023-04-18T02:09:53.684Z,1790.00
2023-04-18T02:10:53.656Z,1785.00
2023-04-18T02:11:53.619Z,1792.00
2023-04-18T02:12:53.591Z,1778.00
2023-04-18T02:13:53.619Z,1778.00
2023-04-18T02:14:53.618Z,1783.00
2023-04-18T02:15:53.650Z,1784.00
2023-04-18T02:16:53.734Z,1778.00
2023-04-18T02:17:53.728Z,1777.00
2023-04-18T02:18:53.714Z,1776.00
2023-04-18T02:19:53.735Z,1767.00
2023-04-18T02:20:53.768Z,1772.00
2023-04-18T02:21:53.772Z,1771.00
2023-04-18T02:22:53.796Z,1771.00
2023-04-18T02:23:53.847Z,1771.00
2023-04-18T02:24:53.853Z,1765.00
2023-04-18T02:25:53.868Z,1761.00
2023-04-18T02:26:53.873Z,1763.00
2023-04-18T02:27:53.908Z,1760.00
2023-04-18T02:28:53.938Z,1753.00
2023-04-18T02:29:53.959Z,1764.00
2023-04-18T02:30:53.993Z,1760.00
2023-04-18T02:31:54.053Z,1758.00
2023-04-18T02:32:54.041Z,1758.00
2023-04-18T02:33:54.065Z,1754.00
2023-04-18T02:34:54.086Z,1750.00
2023-04-18T02:35:54.140Z,1752.00
2023-04-18T02:36:54.138Z,1751.00
2023-04-18T02:37:54.175Z,1748.00
2023-04-18T02:38:54.200Z,1746.00
2023-04-18T02:39:54.247Z,1742.00
2023-04-18T02:40:54.248Z,1737.00
2023-04-18T02:41:54.290Z,1736.00
2023-04-18T02:42:54.315Z,1739.00
2023-04-18T02:43:54.323Z,1748.00
2023-04-18T02:44:54.352Z,1736.00
2023-04-18T02:45:54.401Z,1735.00
2023-04-18T02:46:54.350Z,1736.00
2023-04-18T02:47:56.470Z,1737.00
2023-04-18T02:48:54.298Z,1740.00
2023-04-18T02:49:54.277Z,1740.00
2023-04-18T02:50:54.286Z,1740.00
2023-04-18T02:51:54.317Z,1736.00
2023-04-18T02:52:54.328Z,1734.00
2023-04-18T02:53:54.366Z,1731.00
2023-04-18T02:54:54.329Z,1732.00
2023-04-18T02:55:54.298Z,1732.00
2023-04-18T02:56:54.274Z,1734.00
2023-04-18T02:57:54.268Z,1620.00
2023-04-18T02:58:54.225Z,1548.00
2023-04-18T02:59:54.186Z,1498.00
2023-04-18T03:00:54.261Z,1472.00
2023-04-18T03:01:54.165Z,1438.00
2023-04-18T03:02:54.178Z,1401.00
2023-04-18T03:03:54.082Z,1363.00
2023-04-18T03:04:54.083Z,1293.00
2023-04-18T03:05:54.073Z,1264.00
2023-04-18T03:06:54.135Z,1202.00
2023-04-18T03:07:54.176Z,1152.00
2023-04-18T03:08:54.223Z,1099.00
2023-04-18T03:09:54.287Z,1055.00
2023-04-18T03:10:56.102Z,1030.00
2023-04-18T03:11:54.646Z,989.00
2023-04-18T03:12:54.431Z,957.00
2023-04-18T03:13:54.472Z,935.00
2023-04-18T03:14:54.508Z,907.00
2023-04-18T03:15:54.586Z,883.00
2023-04-18T03:16:55.397Z,859.00
2023-04-18T03:17:54.558Z,847.00
2023-04-18T03:18:54.502Z,814.00
2023-04-18T03:19:54.512Z,793.00
2023-04-18T03:20:54.490Z,772.00
2023-04-18T03:21:54.483Z,744.00
2023-04-18T03:22:54.476Z,725.00
2023-04-18T03:23:54.480Z,698.00
2023-04-18T03:24:54.482Z,699.00
2023-04-18T03:25:54.485Z,665.00
2023-04-18T03:26:54.467Z,664.00
2023-04-18T03:27:54.456Z,648.00
2023-04-18T03:28:54.454Z,646.00
2023-04-18T03:29:54.453Z,642.00
2023-04-18T03:30:54.489Z,637.00
2023-04-18T03:31:54.465Z,630.00
2023-04-18T03:32:54.442Z,628.00
2023-04-18T03:33:54.444Z,618.00
2023-04-18T03:34:54.435Z,612.00
2023-04-18T03:35:54.442Z,602.00
2023-04-18T03:36:54.429Z,601.00
2023-04-18T03:37:54.444Z,602.00
2023-04-18T03:38:54.423Z,605.00
2023-04-18T03:39:54.410Z,605.00
2023-04-18T03:40:54.403Z,591.00
2023-04-18T03:41:54.384Z,592.00
2023-04-18T03:42:54.372Z,595.00
2023-04-18T03:43:54.384Z,588.00
2023-04-18T03:44:54.362Z,588.00
2023-04-18T03:45:54.373Z,576.00
2023-04-18T03:46:54.348Z,580.00
2023-04-18T03:47:54.417Z,579.00
2023-04-18T03:48:54.316Z,574.00
2023-04-18T03:49:54.319Z,572.00
2023-04-18T03:50:54.303Z,563.00
2023-04-18T03:51:54.320Z,560.00
2023-04-18T03:52:54.305Z,552.00
2023-04-18T03:53:54.324Z,549.00
2023-04-18T03:54:54.275Z,537.00
2023-04-18T03:55:54.272Z,541.00
2023-04-18T03:56:54.268Z,531.00
2023-04-18T03:57:54.258Z,530.00
2023-04-18T03:58:54.237Z,525.00
2023-04-18T03:59:54.248Z,521.00
2023-04-18T04:00:54.231Z,507.00
2023-04-18T04:01:54.310Z,502.00
2023-04-18T04:02:54.371Z,508.00
2023-04-18T04:03:54.401Z,506.00
2023-04-18T04:04:54.238Z,503.00
2023-04-18T04:05:54.195Z,502.00
2023-04-18T04:06:54.199Z,495.00
2023-04-18T04:07:54.152Z,497.00
2023-04-18T04:08:54.148Z,494.00
2023-04-18T04:09:54.133Z,501.00
2023-04-18T04:10:54.131Z,505.00
2023-04-18T04:11:54.120Z,505.00
2023-04-18T04:12:54.112Z,506.00
2023-04-18T04:13:54.100Z,507.00
2023-04-18T04:14:54.087Z,507.00
2023-04-18T04:15:54.156Z,511.00
2023-04-18T04:16:54.080Z,520.00
2023-04-18T04:17:54.126Z,523.00
2023-04-18T04:18:54.074Z,506.00
2023-04-18T04:19:54.055Z,513.00
2023-04-18T04:20:54.060Z,516.00
2023-04-18T04:21:54.096Z,512.00
2023-04-18T04:22:54.063Z,512.00
2023-04-18T04:23:54.075Z,512.00
2023-04-18T04:24:54.050Z,517.00
2023-04-18T04:25:54.046Z,511.00
2023-04-18T04:26:54.048Z,512.00
2023-04-18T04:27:54.050Z,515.00
2023-04-18T04:28:54.048Z,510.00
2023-04-18T04:29:54.052Z,510.00
2023-04-18T04:30:54.049Z,515.00
2023-04-18T04:31:54.116Z,511.00
2023-04-18T04:32:54.069Z,517.00
2023-04-18T04:33:54.038Z,520.00
2023-04-18T04:34:54.038Z,521.00
2023-04-18T04:35:54.033Z,528.00
2023-04-18T04:36:54.066Z,530.00
2023-04-18T04:37:54.135Z,526.00
2023-04-18T04:38:54.125Z,532.00
2023-04-18T04:39:54.149Z,530.00
2023-04-18T04:40:54.183Z,530.00
2023-04-18T04:41:54.206Z,537.00
2023-04-18T04:42:54.272Z,533.00
2023-04-18T04:43:54.275Z,544.00
2023-04-18T04:44:54.340Z,546.00
2023-04-18T04:45:54.357Z,552.00
2023-04-18T04:46:54.406Z,552.00
2023-04-18T04:47:54.419Z,560.00
2023-04-18T04:48:54.456Z,563.00
2023-04-18T04:49:54.480Z,569.00
2023-04-18T04:50:54.505Z,578.00
2023-04-18T04:51:54.542Z,584.00
2023-04-18T04:52:54.575Z,586.00
2023-04-18T04:53:54.609Z,589.00
2023-04-18T04:54:54.642Z,589.00
2023-04-18T04:55:54.675Z,582.00
2023-04-18T04:56:54.695Z,586.00
2023-04-18T04:57:54.727Z,589.00
2023-04-18T04:58:54.779Z,583.00
2023-04-18T04:59:54.801Z,580.00
2023-04-18T05:00:54.959Z,570.00
2023-04-18T05:01:54.886Z,575.00
2023-04-18T05:02:55.006Z,566.00
2023-04-18T05:03:55.014Z,563.00
2023-04-18T05:04:54.989Z,564.00
2023-04-18T05:05:55.033Z,564.00
2023-04-18T05:06:55.076Z,569.00
2023-04-18T05:07:55.113Z,562.00
2023-04-18T05:08:55.167Z,561.00
2023-04-18T05:09:55.184Z,559.00
2023-04-18T05:10:55.207Z,563.00
2023-04-18T05:11:55.258Z,555.00
2023-04-18T05:12:55.303Z,557.00
2023-04-18T05:13:55.291Z,557.00
2023-04-18T05:14:55.310Z,557.00
2023-04-18T05:15:55.293Z,557.00
2023-04-18T05:16:55.306Z,557.00
2023-04-18T05:17:55.307Z,555.00
2023-04-18T05:18:55.294Z,558.00
2023-04-18T05:19:55.301Z,551.00
2023-04-18T05:20:55.297Z,556.00
2023-04-18T05:21:55.293Z,546.00
2023-04-18T05:22:55.298Z,545.00
2023-04-18T05:23:55.288Z,526.00
2023-04-18T05:24:55.297Z,517.00
2023-04-18T05:25:55.283Z,512.00
2023-04-18T05:26:55.296Z,502.00
2023-04-18T05:27:55.335Z,507.00
2023-04-18T05:28:55.374Z,501.00
2023-04-18T05:29:55.402Z,499.00
2023-04-18T05:30:55.424Z,499.00
2023-04-18T05:31:55.384Z,490.00
2023-04-18T05:32:55.449Z,512.00
2023-04-18T05:33:55.424Z,555.00
2023-04-18T05:34:55.378Z,629.00
2023-04-18T05:35:55.376Z,743.00
2023-04-18T05:36:55.364Z,878.00
2023-04-18T05:37:55.372Z,950.00
2023-04-18T05:38:55.357Z,1026.00
2023-04-18T05:39:55.337Z,1115.00
2023-04-18T05:40:55.336Z,1150.00
2023-04-18T05:41:55.321Z,1200.00
2023-04-18T05:42:55.311Z,1202.00
2023-04-18T05:44:04.676Z,1218.00
2023-04-18T05:44:56.282Z,1206.00
2023-04-18T05:45:57.646Z,1232.00
2023-04-18T05:46:55.682Z,1297.00
2023-04-18T05:47:55.599Z,1414.00
2023-04-18T05:48:55.571Z,1611.00
2023-04-18T05:49:55.643Z,1654.00
2023-04-18T05:50:55.741Z,1719.00
2023-04-18T05:51:55.741Z,1781.00
2023-04-18T05:52:55.785Z,1616.00
2023-04-18T05:53:55.880Z,753.00
2023-04-18T05:54:55.826Z,571.00
2023-04-18T05:55:55.824Z,536.00
2023-04-18T05:56:55.872Z,494.00
2023-04-18T05:57:55.923Z,491.00
2023-04-18T05:58:56.005Z,476.00
2023-04-18T05:59:56.048Z,488.00
2023-04-18T06:00:56.141Z,499.00
2023-04-18T06:01:56.218Z,500.00
2023-04-18T06:02:56.463Z,522.00
2023-04-18T06:03:56.409Z,569.00
2023-04-18T06:04:56.459Z,597.00
2023-04-18T06:05:56.352Z,599.00
2023-04-18T06:06:56.304Z,609.00
2023-04-18T06:07:56.325Z,637.00
2023-04-18T06:08:56.324Z,763.00
2023-04-18T06:09:56.335Z,1073.00
2023-04-18T06:10:56.341Z,1195.00
2023-04-18T06:11:56.340Z,1117.00
2023-04-18T06:12:56.328Z,994.00
2023-04-18T06:13:56.359Z,924.00
2023-04-18T06:14:56.346Z,813.00
2023-04-18T06:15:56.373Z,786.00
2023-04-18T06:16:56.353Z,786.00
2023-04-18T06:17:56.451Z,787.00
2023-04-18T06:18:56.986Z,828.00
2023-04-18T06:19:56.481Z,877.00
2023-04-18T06:20:56.586Z,923.00
2023-04-18T06:21:56.605Z,846.00
2023-04-18T06:22:56.657Z,786.00
2023-04-18T06:23:56.782Z,775.00
2023-04-18T06:24:56.799Z,809.00
2023-04-18T06:25:56.849Z,863.00
2023-04-18T06:26:56.960Z,838.00
2023-04-18T06:27:56.984Z,857.00
2023-04-18T06:28:57.069Z,877.00
2023-04-18T06:29:57.120Z,872.00
2023-04-18T06:30:57.200Z,858.00
2023-04-18T06:31:57.279Z,862.00
2023-04-18T06:32:57.253Z,875.00
2023-04-18T06:33:57.232Z,898.00
2023-04-18T06:34:57.303Z,915.00
2023-04-18T06:35:57.260Z,951.00
2023-04-18T06:36:57.256Z,1049.00
2023-04-18T06:37:57.254Z,1142.00
2023-04-18T06:38:57.327Z,1398.00
2023-04-18T06:39:57.395Z,1511.00
2023-04-18T06:40:57.268Z,1605.00
2023-04-18T06:41:57.271Z,1706.00
2023-04-18T06:42:57.270Z,1816.00
2023-04-18T06:44:02.837Z,1820.00
2023-04-18T06:44:58.260Z,1824.00
2023-04-18T06:45:57.303Z,1848.00
2023-04-18T06:46:57.259Z,1829.00
2023-04-18T06:47:57.319Z,1545.00
2023-04-18T06:48:57.317Z,1315.00
2023-04-18T06:49:57.250Z,1246.00
2023-04-18T06:50:57.254Z,1203.00
2023-04-18T06:51:57.248Z,1188.00
2023-04-18T06:52:57.263Z,1157.00
2023-04-18T06:53:57.247Z,1128.00
2023-04-18T06:54:57.242Z,1077.00
2023-04-18T06:55:57.238Z,1088.00
2023-04-18T06:56:57.248Z,1036.00
2023-04-18T06:57:57.243Z,927.00
2023-04-18T06:58:57.252Z,922.00
2023-04-18T06:59:57.248Z,962.00
2023-04-18T07:00:57.289Z,901.00
2023-04-18T07:01:57.277Z,817.00
2023-04-18T07:02:57.397Z,758.00
2023-04-18T07:03:57.413Z,708.00
2023-04-18T07:04:57.329Z,650.00
2023-04-18T07:05:57.347Z,609.00
2023-04-18T07:06:57.391Z,602.00
2023-04-18T07:07:57.436Z,520.00
2023-04-18T07:08:57.479Z,505.00
2023-04-18T07:09:57.512Z,474.00
2023-04-18T07:10:57.548Z,486.00
2023-04-18T07:11:57.671Z,511.00
2023-04-18T07:12:57.642Z,528.00
2023-04-18T07:13:57.682Z,500.00
2023-04-18T07:14:57.734Z,512.00
2023-04-18T07:15:57.784Z,500.00
2023-04-18T07:16:57.900Z,501.00
2023-04-18T07:17:57.879Z,501.00
2023-04-18T07:18:57.902Z,501.00
2023-04-18T07:19:57.932Z,501.00
2023-04-18T07:20:57.981Z,501.00
2023-04-18T07:21:57.990Z,471.00
2023-04-18T07:22:57.994Z,458.00
2023-04-18T07:23:58.009Z,434.00
2023-04-18T07:24:57.994Z,426.00
2023-04-18T07:25:57.999Z,419.00
2023-04-18T07:26:58.007Z,409.00
2023-04-18T07:27:58.097Z,426.00
2023-04-18T07:28:58.009Z,450.00
2023-04-18T07:29:57.999Z,506.00
2023-04-18T07:30:58.056Z,503.00
2023-04-18T07:31:57.993Z,502.00
2023-04-18T07:32:58.006Z,508.00
2023-04-18T07:33:58.004Z,510.00
2023-04-18T07:34:58.007Z,514.00
2023-04-18T07:35:58.023Z,542.00
2023-04-18T07:36:58.022Z,656.00
2023-04-18T07:37:58.017Z,972.00
2023-04-18T07:38:58.028Z,1135.00
2023-04-18T07:39:58.040Z,1143.00
2023-04-18T07:40:58.008Z,1208.00
2023-04-18T07:41:58.009Z,1372.00
2023-04-18T07:42:58.002Z,1664.00
2023-04-18T07:43:58.147Z,2136.00
2023-04-18T07:44:57.989Z,2307.00
2023-04-18T07:45:58.034Z,2438.00
2023-04-18T07:46:57.964Z,2574.00
2023-04-18T07:47:57.979Z,2670.00
2023-04-18T07:48:57.955Z,2695.00
2023-04-18T07:49:57.927Z,2755.00
2023-04-18T07:50:57.928Z,2795.00
2023-04-18T07:51:57.917Z,2831.00
2023-04-18T07:52:57.962Z,2867.00
2023-04-18T07:53:57.994Z,2887.00
2023-04-18T07:54:58.035Z,2904.00
2023-04-18T07:55:58.070Z,2911.00
2023-04-18T07:56:58.116Z,2915.00
2023-04-18T07:57:58.108Z,2917.00
2023-04-18T07:58:58.095Z,2930.00
2023-04-18T07:59:58.256Z,2950.00
2023-04-18T08:00:58.043Z,2935.00
2023-04-18T08:01:58.073Z,2910.00
2023-04-18T08:02:58.173Z,2882.00
2023-04-18T08:03:58.059Z,2839.00
2023-04-18T08:04:58.239Z,2799.00
2023-04-18T08:05:57.954Z,2771.00
2023-04-18T08:06:57.908Z,2739.00
2023-04-18T08:07:57.882Z,2696.00
2023-04-18T08:08:57.862Z,2669.00
2023-04-18T08:09:57.836Z,2643.00
2023-04-18T08:10:57.814Z,2617.00
2023-04-18T08:11:57.780Z,2570.00
2023-04-18T08:12:57.756Z,2510.00
2023-04-18T08:13:57.717Z,2513.00
2023-04-18T08:14:57.715Z,2514.00
2023-04-18T08:15:57.849Z,2532.00
2023-04-18T08:16:57.726Z,2501.00
2023-04-18T08:17:57.780Z,2500.00
2023-04-18T08:18:57.798Z,2469.00
2023-04-18T08:19:57.842Z,2411.00
2023-04-18T08:20:57.872Z,2453.00
2023-04-18T08:21:57.907Z,2420.00
2023-04-18T08:23:07.552Z,2358.00
2023-04-18T08:23:58.893Z,2360.00
2023-04-18T08:25:05.059Z,2375.00
2023-04-18T08:25:58.872Z,2361.00
2023-04-18T08:26:57.832Z,2383.00
2023-04-18T08:27:57.813Z,2421.00
2023-04-18T08:28:57.813Z,2455.00
2023-04-18T08:29:57.786Z,2364.00
2023-04-18T08:30:57.745Z,2387.00
2023-04-18T08:31:57.931Z,2439.00
2023-04-18T08:32:57.737Z,2466.00
2023-04-18T08:33:57.688Z,2364.00
2023-04-18T08:34:57.658Z,2382.00
2023-04-18T08:35:57.628Z,2389.00
2023-04-18T08:36:57.606Z,2382.00
2023-04-18T08:37:57.563Z,2318.00
2023-04-18T08:38:57.524Z,2253.00
2023-04-18T08:39:57.525Z,2224.00
2023-04-18T08:40:57.466Z,2166.00
2023-04-18T08:41:57.449Z,2088.00
2023-04-18T08:42:57.410Z,2016.00
2023-04-18T08:43:57.386Z,2051.00
2023-04-18T08:44:57.368Z,2043.00
2023-04-18T08:45:57.371Z,2052.00
2023-04-18T08:46:57.309Z,2053.00
2023-04-18T08:47:57.355Z,2095.00
2023-04-18T08:48:57.248Z,2106.00
2023-04-18T08:49:57.238Z,2066.00
2023-04-18T08:50:57.240Z,2122.00
2023-04-18T08:51:57.245Z,2181.00
2023-04-18T08:52:57.253Z,2207.00
2023-04-18T08:53:57.281Z,2250.00
2023-04-18T08:54:57.242Z,2228.00
2023-04-18T08:55:57.420Z,2235.00
2023-04-18T08:56:57.180Z,2253.00
2023-04-18T08:57:57.148Z,2265.00
2023-04-18T08:58:57.115Z,2292.00
2023-04-18T08:59:57.089Z,2311.00
2023-04-18T09:00:57.124Z,2379.00
2023-04-18T09:01:57.260Z,2409.00
2023-04-18T09:02:57.430Z,2464.00
2023-04-18T09:03:57.059Z,2469.00
2023-04-18T09:04:56.929Z,2483.00
2023-04-18T09:05:56.895Z,2474.00
2023-04-18T09:06:56.872Z,2460.00
2023-04-18T09:07:56.828Z,2476.00
2023-04-18T09:08:56.809Z,2482.00
2023-04-18T09:09:56.780Z,2472.00
2023-04-18T09:10:56.735Z,2476.00
2023-04-18T09:11:56.710Z,2467.00
2023-04-18T09:12:56.703Z,2410.00
2023-04-18T09:13:56.705Z,2428.00
2023-04-18T09:14:56.744Z,2418.00
2023-04-18T09:15:56.714Z,2373.00
2023-04-18T09:16:56.744Z,2407.00
2023-04-18T09:17:56.811Z,2447.00
2023-04-18T09:18:56.736Z,2483.00
2023-04-18T09:19:56.927Z,2469.00
2023-04-18T09:20:56.744Z,2474.00
2023-04-18T09:21:56.689Z,2476.00
2023-04-18T09:22:56.678Z,2475.00
2023-04-18T09:23:56.623Z,2488.00
2023-04-18T09:24:56.586Z,2543.00
2023-04-18T09:25:56.565Z,2655.00
2023-04-18T09:26:56.518Z,2712.00
2023-04-18T09:27:56.489Z,2743.00
2023-04-18T09:28:56.453Z,2769.00
2023-04-18T09:29:57.935Z,2800.00
2023-04-18T09:30:56.416Z,2836.00
2023-04-18T09:31:56.360Z,2867.00
2023-04-18T09:32:56.368Z,2881.00
2023-04-18T09:33:56.330Z,2906.00
2023-04-18T09:34:56.269Z,2926.00
2023-04-18T09:35:56.311Z,2951.00
2023-04-18T09:36:56.248Z,2966.00
2023-04-18T09:37:56.205Z,2989.00
2023-04-18T09:38:57.040Z,3014.00
2023-04-18T09:39:56.145Z,3033.00
2023-04-18T09:40:56.140Z,3049.00
2023-04-18T09:41:56.135Z,3049.00
2023-04-18T09:42:56.125Z,3063.00
2023-04-18T09:43:56.081Z,3066.00
2023-04-18T09:44:56.942Z,3069.00
2023-04-18T09:45:56.038Z,3078.00
2023-04-18T09:46:56.021Z,3100.00
2023-04-18T09:47:56.001Z,3138.00
2023-04-18T09:48:55.916Z,3138.00
2023-04-18T09:49:55.876Z,3118.00
2023-04-18T09:50:55.856Z,3102.00
2023-04-18T09:51:55.848Z,3063.00
2023-04-18T09:52:55.788Z,3017.00
2023-04-18T09:53:55.755Z,3019.00
2023-04-18T09:54:55.740Z,3027.00
2023-04-18T09:55:57.611Z,2981.00
2023-04-18T09:56:55.653Z,2971.00
2023-04-18T09:57:55.622Z,2959.00
2023-04-18T09:58:55.611Z,2998.00
2023-04-18T09:59:55.594Z,2951.00
2023-04-18T10:00:55.563Z,2875.00
2023-04-18T10:01:55.602Z,2846.00
2023-04-18T10:02:55.572Z,2844.00
2023-04-18T10:03:55.524Z,2802.00
2023-04-18T10:04:55.510Z,2752.00
2023-04-18T10:05:57.690Z,2721.00
2023-04-18T10:06:55.384Z,2723.00
2023-04-18T10:07:55.360Z,2723.00
2023-04-18T10:08:55.310Z,2679.00
2023-04-18T10:09:55.306Z,2577.00
2023-04-18T10:10:55.265Z,2574.00
2023-04-18T10:11:55.229Z,2527.00
2023-04-18T10:12:55.204Z,2371.00
2023-04-18T10:13:55.167Z,2345.00
2023-04-18T10:14:55.130Z,2311.00
2023-04-18T10:15:55.112Z,2229.00
2023-04-18T10:16:55.062Z,2145.00
2023-04-18T10:18:04.331Z,1978.00
2023-04-18T10:18:55.998Z,1979.00
2023-04-18T10:19:54.979Z,1979.00
2023-04-18T10:20:54.942Z,1980.00
2023-04-18T10:21:54.918Z,1974.00
2023-04-18T10:22:54.872Z,1971.00
2023-04-18T10:23:54.844Z,1914.00
2023-04-18T10:24:54.812Z,1913.00
2023-04-18T10:25:54.782Z,1828.00
2023-04-18T10:26:54.748Z,1792.00
2023-04-18T10:27:54.712Z,1883.00
2023-04-18T10:28:55.058Z,1844.00
2023-04-18T10:29:54.642Z,1790.00
2023-04-18T10:30:54.617Z,1829.00
2023-04-18T10:31:54.665Z,1769.00
2023-04-18T10:32:54.612Z,1742.00
2023-04-18T10:34:03.888Z,1670.00
2023-04-18T10:34:54.468Z,1671.00
2023-04-18T10:35:54.462Z,1652.00
2023-04-18T10:36:54.396Z,1646.00
2023-04-18T10:37:54.367Z,1678.00
2023-04-18T10:38:54.327Z,1690.00
2023-04-18T10:39:54.297Z,1772.00
2023-04-18T10:40:54.266Z,1834.00
2023-04-18T10:41:54.232Z,1896.00
2023-04-18T10:42:54.214Z,1986.00
2023-04-18T10:43:54.204Z,2013.00
2023-04-18T10:44:54.151Z,2040.00
2023-04-18T10:45:54.138Z,2075.00
2023-04-18T10:46:54.132Z,2112.00
2023-04-18T10:47:54.083Z,2116.00
2023-04-18T10:48:54.035Z,2182.00
2023-04-18T10:49:53.988Z,2093.00
2023-04-18T10:50:53.956Z,1956.00
2023-04-18T10:51:53.924Z,1958.00
2023-04-18T10:52:53.886Z,1964.00
2023-04-18T10:53:53.856Z,1883.00
2023-04-18T10:54:53.819Z,1812.00
2023-04-18T10:55:53.799Z,1782.00
2023-04-18T10:56:53.783Z,1751.00
2023-04-18T10:57:53.729Z,1762.00
2023-04-18T10:58:53.695Z,1773.00
2023-04-18T10:59:53.638Z,1753.00
2023-04-18T11:00:53.626Z,1753.00
2023-04-18T11:01:53.596Z,1704.00
2023-04-18T11:02:53.821Z,1715.00
2023-04-18T11:03:53.648Z,1669.00
2023-04-18T11:04:53.458Z,1695.00
2023-04-18T11:05:53.416Z,1702.00
2023-04-18T11:06:53.395Z,1747.00
2023-04-18T11:07:53.374Z,1763.00
2023-04-18T11:08:53.324Z,1759.00
2023-04-18T11:09:53.292Z,1736.00
2023-04-18T11:10:53.254Z,1730.00
2023-04-18T11:11:53.285Z,1772.00
2023-04-18T11:12:53.230Z,1838.00
2023-04-18T11:13:53.184Z,1850.00
2023-04-18T11:14:53.138Z,1870.00
2023-04-18T11:15:53.112Z,1904.00
2023-04-18T11:16:53.119Z,1971.00
2023-04-18T11:17:53.083Z,1972.00
2023-04-18T11:18:53.017Z,1894.00
2023-04-18T11:19:52.974Z,1750.00
2023-04-18T11:20:52.934Z,1734.00
2023-04-18T11:21:52.932Z,1700.00
2023-04-18T11:22:52.872Z,1561.00
2023-04-18T11:23:52.854Z,1557.00
2023-04-18T11:24:52.795Z,1584.00
2023-04-18T11:25:52.778Z,1589.00
2023-04-18T11:26:52.722Z,1616.00
2023-04-18T11:27:52.691Z,1708.00
2023-04-18T11:28:52.665Z,1820.00
2023-04-18T11:29:52.600Z,1987.00
2023-04-18T11:30:52.566Z,2028.00
2023-04-18T11:31:53.034Z,2030.00
2023-04-18T11:32:52.529Z,2046.00
2023-04-18T11:33:52.473Z,2091.00
2023-04-18T11:34:52.395Z,2157.00
2023-04-18T11:35:52.362Z,2251.00
2023-04-18T11:36:52.332Z,2257.00
2023-04-18T11:37:52.287Z,2176.00
2023-04-18T11:38:52.252Z,2227.00
2023-04-18T11:39:52.208Z,2228.00
2023-04-18T11:40:52.170Z,2324.00
2023-04-18T11:41:52.161Z,2345.00
2023-04-18T11:42:52.102Z,2318.00
2023-04-18T11:43:52.094Z,2196.00
2023-04-18T11:44:52.043Z,2125.00
2023-04-18T11:45:52.054Z,2129.00
2023-04-18T11:46:51.992Z,2031.00
2023-04-18T11:47:51.983Z,2070.00
2023-04-18T11:48:51.911Z,2114.00
2023-04-18T11:49:51.895Z,2115.00
2023-04-18T11:50:51.852Z,2115.00
2023-04-18T11:51:51.852Z,2080.00
2023-04-18T11:52:51.798Z,2093.00
2023-04-18T11:53:51.748Z,2109.00
2023-04-18T11:54:51.712Z,2092.00
2023-04-18T11:55:51.681Z,2029.00
2023-04-18T11:56:51.649Z,1841.00
2023-04-18T11:57:51.599Z,1952.00
2023-04-18T11:58:51.589Z,2055.00
2023-04-18T11:59:51.550Z,1939.00
2023-04-18T12:00:51.481Z,2052.00
2023-04-18T12:01:53.100Z,2053.00
2023-04-18T12:02:51.574Z,2026.00
2023-04-18T12:03:51.482Z,2000.00
2023-04-18T12:04:51.566Z,1988.00
2023-04-18T12:05:51.480Z,2006.00
2023-04-18T12:06:51.281Z,1940.00
2023-04-18T12:07:51.227Z,1978.00
2023-04-18T12:08:52.384Z,1961.00
2023-04-18T12:09:51.147Z,1862.00
2023-04-18T12:10:51.121Z,1873.00
2023-04-18T12:11:51.097Z,1859.00
2023-04-18T12:12:51.053Z,1793.00